Suffield, Canada
Current Conditions -  °F | °C
As of 7:00 AM on Thursday 23 Oct 2014 (Local Time) from CYXH Reporting Station
Overcast Overcast  
Wind Chill: 55°   Ceiling: 13000
Heat Index: 55°   Visibility: 15mi
Dew Point: 39°   Wind: 12mph
Humidity: 54%   Direction: 200°SSW
Pressure: 29.64"   Gusts: 21mph
Location:  50.21°N, 111.18°W
Report Text: CYXH 231300Z 20010G18KT 15SM OVC130 13/04 A2964 RMK AC8 SLP043 DENSITY ALT 2900FT
Loading
Personal Weather Stations






























Interactive Weather Map
Tropical Storm Tracking
New forecast layout! Learn more

10-Day Weather Forecast

Advertisements
Track Severe Weather on mobile